This is the latest recevied weather packets stored in our database for station/object SV2BZQ-2. If no packets are shown the sender has not sent any weather packets the latest 10 day(s).
| Time | Temp. | Humidity | Pressure | Rain* | Wind** | Luminosity | Snow |
|---|---|---|---|---|---|---|---|
| 1777270772 | 19.44° C | 43% | 1018.8 hPa | 0 mm | - | 413 W/m² | - |
| 1777270158 | 18.89° C | 44% | 1018.7 hPa | 0 mm | - | 383 W/m² | - |
| 1777260949 | 17.22° C | 46% | 1015.9 hPa | 0 mm | - | 0 W/m² | - |
| 1777255877 | 18.89° C | 44% | 1015.5 hPa | 0 mm | - | 0 W/m² | - |
| 1777254968 | 18.89° C | 45% | 1015.3 hPa | 0 mm | - | 0 W/m² | - |
| 1777254069 | 18.89° C | 45% | 1015.3 hPa | 0 mm | - | 0 W/m² | - |
| 1777253892 | 8.89° C | 86% | 1013.7 hPa | 0 mm | - | 14 W/m² | - |
| 1777251223 | 20.56° C | 46% | 1014.8 hPa | 0 mm | - | 0 W/m² | - |
| 1777248917 | 20° C | 47% | 1015 hPa | 0 mm | - | 0 W/m² | - |
| 1777248699 | 20° C | 46% | 1014.9 hPa | 0 mm | - | 0 W/m² | - |
| 1777246694 | 20° C | 49% | 1014.3 hPa | 0 mm | - | 0 W/m² | - |
| 1777245666 | 20.56° C | 46% | 1014.6 hPa | 0 mm | - | 0 W/m² | - |
| 1777243941 | 18.89° C | 53% | 1014.2 hPa | 0 mm | - | 0 W/m² | - |
| 1777242897 | 16.11° C | 74% | 1014 hPa | 0 mm | - | 0 W/m² | - |
| 1777241478 | 16.11° C | 74% | 1014 hPa | 0 mm | - | 0 W/m² | - |
| 1777239905 | 16.11° C | 73% | 1013.5 hPa | 0 mm | - | 0 W/m² | - |
| 1777238410 | 16.11° C | 73% | 1013.4 hPa | 0 mm | - | 0 W/m² | - |
| 1777238133 | 16.11° C | 73% | 1013.3 hPa | 0 mm | - | 0 W/m² | - |
| 1777237646 | 26.67° C | 48% | 1010.5 hPa | 0 mm | - | 290 W/m² | - |
| 1777237196 | 16.67° C | 72% | 1013.2 hPa | 0 mm | - | 0 W/m² | - |
| 1777234760 | 17.78° C | 67% | 1013.1 hPa | 0 mm | - | 0 W/m² | - |
| 1777234732 | 23.33° C | 56% | 1012.4 hPa | 0 mm | - | 828 W/m² | - |
| 1777234594 | 22.78° C | 59% | 1012.4 hPa | 0 mm | - | 819 W/m² | - |
| 1777234545 | 21.67° C | 59% | 1012.7 hPa | 0 mm | - | 596 W/m² | - |
| 1777231149 | 20.56° C | 59% | 1012.3 hPa | 0 mm | - | 0 W/m² | - |
* Rain latest hour (hover to see other rain measurements)
** Current wind speed in m/s (hover to see current wind gust speed)